createdAt,value
2018-09-27T00:00:15.515Z,13.40
2018-09-27T00:02:45.353Z,13.40
2018-09-27T00:05:15.301Z,13.50
2018-09-27T00:07:45.128Z,13.60
2018-09-27T00:10:14.899Z,13.60
2018-09-27T00:12:44.795Z,13.50
2018-09-27T00:15:14.655Z,13.50
2018-09-27T00:17:44.445Z,13.70
2018-09-27T00:20:14.312Z,13.40
2018-09-27T00:22:44.186Z,13.30
2018-09-27T00:27:43.236Z,13.10
2018-09-27T00:30:13.078Z,12.70
2018-09-27T00:35:12.225Z,12.50
2018-09-27T00:37:42.024Z,12.40
2018-09-27T00:40:11.880Z,12.70
2018-09-27T00:42:41.715Z,12.90
2018-09-27T00:45:11.598Z,12.90
2018-09-27T00:47:41.524Z,12.90
2018-09-27T00:50:11.321Z,12.80
2018-09-27T00:52:41.262Z,12.70
2018-09-27T00:55:10.974Z,12.80
2018-09-27T00:57:40.931Z,12.70
2018-09-27T01:00:10.776Z,12.50
2018-09-27T01:02:40.669Z,12.50
2018-09-27T01:07:39.619Z,12.70
2018-09-27T01:10:09.174Z,12.50
2018-09-27T01:12:38.725Z,12.50
2018-09-27T01:15:08.449Z,12.50
2018-09-27T01:17:37.986Z,12.30
2018-09-27T01:20:07.606Z,12.30
2018-09-27T01:22:37.263Z,12.50
2018-09-27T01:25:06.991Z,12.50
2018-09-27T01:27:36.685Z,12.90
2018-09-27T01:30:07.381Z,12.90
2018-09-27T01:32:37.012Z,12.80
2018-09-27T01:35:06.703Z,12.60
2018-09-27T01:37:36.346Z,12.70
2018-09-27T01:40:05.961Z,12.60
2018-09-27T01:42:35.596Z,12.60
2018-09-27T01:47:34.283Z,12.70
2018-09-27T01:50:03.919Z,12.40
2018-09-27T01:52:33.458Z,12.50
2018-09-27T01:55:02.958Z,12.40
2018-09-27T01:57:32.535Z,12.50
2018-09-27T02:00:02.065Z,12.50
2018-09-27T02:02:31.686Z,12.50
2018-09-27T02:05:01.239Z,12.40
2018-09-27T02:07:30.828Z,12.20
2018-09-27T02:10:00.417Z,12.20
2018-09-27T02:12:29.981Z,12.30
2018-09-27T02:14:59.648Z,12.40
2018-09-27T02:17:29.168Z,12.10
2018-09-27T02:19:58.773Z,12.00
2018-09-27T02:22:28.361Z,12.10
2018-09-27T02:24:57.975Z,12.00
2018-09-27T02:27:27.509Z,12.00
2018-09-27T02:29:57.078Z,11.90
2018-09-27T02:32:26.661Z,12.00
2018-09-27T02:34:56.254Z,11.80
2018-09-27T02:37:26.000Z,12.00
2018-09-27T02:39:55.570Z,12.10
2018-09-27T02:42:25.185Z,12.00
2018-09-27T02:44:54.744Z,11.80
2018-09-27T02:47:24.265Z,11.70
2018-09-27T02:49:53.876Z,11.60
2018-09-27T02:52:23.598Z,11.70
2018-09-27T02:54:53.257Z,12.00
2018-09-27T02:57:22.881Z,12.00
2018-09-27T02:59:52.439Z,11.90
2018-09-27T03:02:22.198Z,11.90
2018-09-27T03:04:51.758Z,11.60
2018-09-27T03:07:21.345Z,11.40
2018-09-27T03:09:50.878Z,11.50
2018-09-27T03:12:20.449Z,11.40
2018-09-27T03:14:49.970Z,11.40
2018-09-27T03:17:19.601Z,12.00
2018-09-27T03:19:49.137Z,11.50
2018-09-27T03:22:18.787Z,11.50
2018-09-27T03:24:48.349Z,11.40
2018-09-27T03:27:17.883Z,11.40
2018-09-27T03:29:47.448Z,11.50
2018-09-27T03:32:17.026Z,11.70
2018-09-27T03:34:46.549Z,11.60
2018-09-27T03:37:16.101Z,11.60
2018-09-27T03:39:45.693Z,11.50
2018-09-27T03:42:15.234Z,11.30
2018-09-27T03:44:44.795Z,10.90
2018-09-27T03:47:14.461Z,10.90
2018-09-27T03:49:43.969Z,11.10
2018-09-27T03:52:13.518Z,11.30
2018-09-27T03:57:12.414Z,11.00
2018-09-27T04:01:11.274Z,11.00
2018-09-27T04:03:40.916Z,10.70
2018-09-27T04:06:10.547Z,10.50
2018-09-27T04:08:40.129Z,10.60
2018-09-27T04:11:09.775Z,10.70
2018-09-27T04:13:39.604Z,10.50
2018-09-27T04:16:09.617Z,10.70
2018-09-27T04:18:39.203Z,10.70
2018-09-27T04:21:08.792Z,11.00
2018-09-27T04:23:38.370Z,11.00
2018-09-27T04:26:08.029Z,11.10
2018-09-27T04:28:37.658Z,11.20
2018-09-27T04:33:36.284Z,11.50
2018-09-27T04:36:05.836Z,11.30
2018-09-27T04:38:35.434Z,11.00
2018-09-27T04:41:04.969Z,11.00
2018-09-27T04:43:34.733Z,11.20
2018-09-27T04:46:04.322Z,11.30
2018-09-27T04:48:36.299Z,11.00
2018-09-27T04:51:06.001Z,10.70
2018-09-27T04:53:35.605Z,10.90
2018-09-27T04:56:05.320Z,11.00
2018-09-27T04:58:34.867Z,11.20
2018-09-27T05:01:04.421Z,11.30
2018-09-27T05:03:34.067Z,11.10
2018-09-27T05:06:03.674Z,11.10
2018-09-27T05:08:33.212Z,10.70
2018-09-27T05:11:02.834Z,10.80
2018-09-27T05:13:32.362Z,10.90
2018-09-27T05:16:01.872Z,11.30
2018-09-27T05:18:31.532Z,11.20
2018-09-27T05:21:01.100Z,11.00
2018-09-27T05:23:30.658Z,11.00
2018-09-27T05:26:00.211Z,11.00
2018-09-27T05:28:29.726Z,11.10
2018-09-27T05:30:59.305Z,11.00
2018-09-27T05:33:28.895Z,11.20
2018-09-27T05:35:58.504Z,11.50
2018-09-27T05:38:28.074Z,11.60
2018-09-27T05:40:57.722Z,11.60
2018-09-27T05:43:27.390Z,10.30
2018-09-27T05:45:57.013Z,11.30
2018-09-27T05:48:26.555Z,11.50
2018-09-27T05:50:56.213Z,11.60
2018-09-27T05:55:55.065Z,11.60
2018-09-27T05:58:24.630Z,11.70
2018-09-27T06:00:54.274Z,11.70
2018-09-27T06:03:23.950Z,11.70
2018-09-27T06:05:53.730Z,11.90
2018-09-27T06:08:23.461Z,12.00
2018-09-27T06:10:53.111Z,12.20
2018-09-27T06:13:22.728Z,12.30
2018-09-27T06:15:52.363Z,12.40
2018-09-27T06:18:22.172Z,12.30
2018-09-27T06:20:52.017Z,12.30
2018-09-27T06:25:50.882Z,12.50
2018-09-27T06:28:20.517Z,12.50
2018-09-27T06:30:50.160Z,12.90
2018-09-27T06:33:19.746Z,12.90
2018-09-27T06:35:49.344Z,12.80
2018-09-27T06:38:19.007Z,12.70
2018-09-27T06:40:49.804Z,13.00
2018-09-27T06:43:19.473Z,13.00
2018-09-27T06:45:49.131Z,13.10
2018-09-27T06:48:19.924Z,13.10
2018-09-27T06:53:19.500Z,13.60
2018-09-27T06:55:49.095Z,13.80
2018-09-27T06:58:18.852Z,14.00
2018-09-27T07:00:48.673Z,13.90
2018-09-27T07:03:18.396Z,13.90
2018-09-27T07:05:48.047Z,14.10
2018-09-27T07:08:17.734Z,14.00
2018-09-27T07:10:47.324Z,14.00
2018-09-27T07:13:16.977Z,13.90
2018-09-27T07:18:15.663Z,13.80
2018-09-27T07:20:45.363Z,13.80
2018-09-27T07:23:15.107Z,14.00
2018-09-27T07:25:45.103Z,14.40
2018-09-27T07:28:14.760Z,14.30
2018-09-27T07:30:44.457Z,14.80
2018-09-27T07:33:14.076Z,14.80
2018-09-27T07:35:44.460Z,15.00
2018-09-27T07:38:14.089Z,14.70
2018-09-27T07:40:43.691Z,14.70
2018-09-27T07:43:13.347Z,15.00
2018-09-27T07:45:43.370Z,14.90
2018-09-27T07:48:13.005Z,14.90
2018-09-27T07:50:42.684Z,15.30
2018-09-27T07:53:12.332Z,15.50
2018-09-27T07:55:42.134Z,15.20
2018-09-27T07:58:12.360Z,15.30
2018-09-27T08:00:42.058Z,15.40
2018-09-27T08:03:11.988Z,15.60
2018-09-27T08:05:41.558Z,15.80
2018-09-27T08:08:11.335Z,16.10
2018-09-27T08:10:40.888Z,16.00
2018-09-27T08:13:10.513Z,15.80
2018-09-27T08:15:40.143Z,15.40
2018-09-27T08:18:10.771Z,15.60
2018-09-27T08:20:40.533Z,15.60
2018-09-27T08:23:10.140Z,16.00
2018-09-27T08:25:39.672Z,16.50
2018-09-27T08:28:09.242Z,16.70
2018-09-27T08:30:38.795Z,16.30
2018-09-27T08:33:08.673Z,16.40
2018-09-27T08:35:38.312Z,16.90
2018-09-27T08:38:08.029Z,16.70
2018-09-27T08:40:37.590Z,16.90
2018-09-27T08:43:07.155Z,16.50
2018-09-27T08:45:36.887Z,16.50
2018-09-27T08:48:06.952Z,16.70
2018-09-27T08:50:36.536Z,16.80
2018-09-27T08:53:06.260Z,16.70
2018-09-27T08:55:36.038Z,16.80
2018-09-27T08:58:06.352Z,17.00
2018-09-27T09:00:36.965Z,17.40
2018-09-27T09:03:07.006Z,17.70
2018-09-27T09:05:36.756Z,17.90
2018-09-27T09:08:07.303Z,17.70
2018-09-27T09:10:37.473Z,17.50
2018-09-27T09:13:07.350Z,17.40
2018-09-27T09:15:37.018Z,17.60
2018-09-27T09:18:10.280Z,17.90
2018-09-27T09:20:40.071Z,17.90
2018-09-27T09:23:10.120Z,18.40
2018-09-27T09:25:39.725Z,18.20
2018-09-27T09:28:09.542Z,18.20
2018-09-27T09:30:39.185Z,18.20
2018-09-27T09:33:08.915Z,18.40
2018-09-27T09:35:38.583Z,18.40
2018-09-27T09:38:08.328Z,18.50
2018-09-27T09:40:37.964Z,18.90
2018-09-27T09:43:08.037Z,19.00
2018-09-27T09:45:37.811Z,18.80
2018-09-27T09:48:07.948Z,19.00
2018-09-27T09:50:40.030Z,19.20
2018-09-27T09:53:09.796Z,19.10
2018-09-27T09:55:40.523Z,19.20
2018-09-27T09:58:10.530Z,19.20
2018-09-27T10:00:41.941Z,19.10
2018-09-27T10:03:11.681Z,19.50
2018-09-27T10:05:41.366Z,19.90
2018-09-27T10:08:11.097Z,20.00
2018-09-27T10:10:40.774Z,19.90
2018-09-27T10:13:10.444Z,20.00
2018-09-27T10:15:40.218Z,19.80
2018-09-27T10:18:09.981Z,20.00
2018-09-27T10:20:39.658Z,20.60
2018-09-27T10:23:09.896Z,20.80
2018-09-27T10:25:39.818Z,21.10
2018-09-27T10:28:09.538Z,21.00
2018-09-27T10:30:39.193Z,21.10
2018-09-27T10:33:09.025Z,21.50
2018-09-27T10:35:38.742Z,21.50
2018-09-27T10:38:09.344Z,21.30
2018-09-27T10:40:39.068Z,21.50
2018-09-27T10:43:08.751Z,21.60
2018-09-27T10:45:38.422Z,21.60
2018-09-27T10:48:08.365Z,21.80
2018-09-27T10:50:38.003Z,21.50
2018-09-27T10:53:08.095Z,21.40
2018-09-27T10:55:37.658Z,22.00
2018-09-27T10:58:08.229Z,22.40
2018-09-27T11:00:38.063Z,22.50
2018-09-27T11:03:07.876Z,22.70
2018-09-27T11:05:37.691Z,22.80
2018-09-27T11:08:07.347Z,22.70
2018-09-27T11:10:37.467Z,22.80
2018-09-27T11:13:07.565Z,23.10
2018-09-27T11:15:37.248Z,23.20
2018-09-27T11:18:08.420Z,23.40
2018-09-27T11:20:39.793Z,23.40
2018-09-27T11:23:09.528Z,22.80
2018-09-27T11:25:39.204Z,22.80
2018-09-27T11:28:08.863Z,23.50
2018-09-27T11:30:42.606Z,24.00
2018-09-27T11:33:16.717Z,23.10
2018-09-27T11:35:46.507Z,22.80
2018-09-27T11:38:18.961Z,23.10
2018-09-27T11:40:49.732Z,23.50
2018-09-27T11:43:20.634Z,23.40
2018-09-27T11:45:51.318Z,23.30
2018-09-27T11:48:24.067Z,22.70
2018-09-27T11:50:56.217Z,23.30
2018-09-27T11:53:25.985Z,23.50
2018-09-27T11:55:57.871Z,23.80
2018-09-27T11:58:27.826Z,24.20
2018-09-27T12:00:58.248Z,24.50
2018-09-27T12:03:28.103Z,24.20
2018-09-27T12:05:58.733Z,23.50
2018-09-27T12:08:28.443Z,24.00
2018-09-27T12:10:59.051Z,25.20
2018-09-27T12:13:31.254Z,23.70
2018-09-27T12:16:00.884Z,24.70
2018-09-27T12:18:30.713Z,24.60
2018-09-27T12:21:02.735Z,22.10
2018-09-27T12:23:36.658Z,25.20
2018-09-27T12:26:08.684Z,25.00
2018-09-27T12:28:38.724Z,24.90
2018-09-27T12:31:08.943Z,25.00
2018-09-27T12:33:39.322Z,25.40
2018-09-27T12:36:08.997Z,26.10
2018-09-27T12:38:38.732Z,25.70
2018-09-27T12:41:08.442Z,25.20
2018-09-27T12:43:38.067Z,25.80
2018-09-27T12:46:08.044Z,26.80
2018-09-27T12:48:37.728Z,27.30
2018-09-27T12:51:07.292Z,27.30
2018-09-27T12:53:36.970Z,25.80
2018-09-27T12:56:07.279Z,26.50
2018-09-27T12:58:37.303Z,27.00
2018-09-27T13:01:07.969Z,26.50
2018-09-27T13:03:39.483Z,26.60
2018-09-27T13:06:11.743Z,26.30
2018-09-27T13:08:42.345Z,26.60
2018-09-27T13:11:12.499Z,27.70
2018-09-27T13:13:42.250Z,27.10
2018-09-27T13:16:11.928Z,26.20
2018-09-27T13:18:41.627Z,26.30
2018-09-27T13:21:11.317Z,25.60
2018-09-27T13:23:41.033Z,26.20
2018-09-27T13:26:10.753Z,26.20
2018-09-27T13:28:40.500Z,26.80
2018-09-27T13:31:10.513Z,26.80
2018-09-27T13:33:40.861Z,26.80
2018-09-27T13:36:10.622Z,27.30
2018-09-27T13:38:40.345Z,28.10
2018-09-27T13:41:10.295Z,27.90
2018-09-27T13:43:40.946Z,28.10
2018-09-27T13:46:11.679Z,27.60
2018-09-27T13:48:41.432Z,26.80
2018-09-27T13:51:11.224Z,27.80
2018-09-27T13:53:40.776Z,28.50
2018-09-27T13:56:10.400Z,27.90
2018-09-27T13:58:40.081Z,27.50
2018-09-27T14:01:10.124Z,27.00
2018-09-27T14:03:39.655Z,26.80
2018-09-27T14:06:09.310Z,27.60
2018-09-27T14:08:38.897Z,27.20
2018-09-27T14:11:08.497Z,27.10
2018-09-27T14:13:38.126Z,26.80
2018-09-27T14:16:07.737Z,26.80
2018-09-27T14:18:37.361Z,26.90
2018-09-27T14:21:07.073Z,27.10
2018-09-27T14:23:36.730Z,28.10
2018-09-27T14:26:06.382Z,28.00
2018-09-27T14:28:36.781Z,27.20
2018-09-27T14:31:07.158Z,27.60
2018-09-27T14:33:37.625Z,27.90
2018-09-27T14:36:08.060Z,28.10
2018-09-27T14:38:38.477Z,27.90
2018-09-27T14:41:08.638Z,28.10
2018-09-27T14:43:39.122Z,27.10
2018-09-27T14:46:09.478Z,27.30
2018-09-27T14:48:40.738Z,27.90
2018-09-27T14:51:11.032Z,27.70
2018-09-27T14:53:41.055Z,28.40
2018-09-27T14:56:11.492Z,28.40
2018-09-27T14:58:41.498Z,28.40
2018-09-27T15:01:11.875Z,27.60
2018-09-27T15:03:42.231Z,28.10
2018-09-27T15:06:11.897Z,26.70
2018-09-27T15:08:41.571Z,27.00
2018-09-27T15:11:11.270Z,27.10
2018-09-27T15:13:40.847Z,27.60
2018-09-27T15:16:10.413Z,27.60
2018-09-27T15:18:41.946Z,27.70
2018-09-27T15:21:11.682Z,27.30
2018-09-27T15:23:41.259Z,27.80
2018-09-27T15:26:13.829Z,26.80
2018-09-27T15:28:43.442Z,26.60
2018-09-27T15:31:13.106Z,26.60
2018-09-27T15:33:42.687Z,25.60
2018-09-27T15:36:12.303Z,25.70
2018-09-27T15:38:42.092Z,26.40
2018-09-27T15:41:13.246Z,26.40
2018-09-27T15:43:42.883Z,26.40
2018-09-27T15:46:12.533Z,26.70
2018-09-27T15:48:42.107Z,27.40
2018-09-27T15:51:11.714Z,27.40
2018-09-27T15:53:41.481Z,27.10
2018-09-27T15:56:11.142Z,26.60
2018-09-27T15:58:40.870Z,27.00
2018-09-27T16:01:10.701Z,27.10
2018-09-27T16:03:40.305Z,26.60
2018-09-27T16:06:09.937Z,27.30
2018-09-27T16:08:39.506Z,27.60
2018-09-27T16:11:09.199Z,27.10
2018-09-27T16:13:39.767Z,26.40
2018-09-27T16:16:09.526Z,25.90
2018-09-27T16:18:39.127Z,24.80
2018-09-27T16:21:08.892Z,24.80
2018-09-27T16:23:38.484Z,25.40
2018-09-27T16:26:08.265Z,25.10
2018-09-27T16:28:39.080Z,24.80
2018-09-27T16:31:08.673Z,24.30
2018-09-27T16:33:39.670Z,23.90
2018-09-27T16:36:13.799Z,24.10
2018-09-27T16:38:43.851Z,24.00
2018-09-27T16:41:13.512Z,23.80
2018-09-27T16:43:43.130Z,23.70
2018-09-27T16:46:12.707Z,23.70
2018-09-27T16:48:42.448Z,23.50
2018-09-27T16:51:12.030Z,23.30
2018-09-27T16:53:41.704Z,23.40
2018-09-27T16:56:11.637Z,23.30
2018-09-27T16:58:41.581Z,23.10
2018-09-27T17:01:11.283Z,22.90
2018-09-27T17:03:40.955Z,22.80
2018-09-27T17:06:10.760Z,22.60
2018-09-27T17:08:40.446Z,22.50
2018-09-27T17:11:10.153Z,22.50
2018-09-27T17:13:39.913Z,22.50
2018-09-27T17:16:10.130Z,22.30
2018-09-27T17:18:40.073Z,22.20
2018-09-27T17:21:10.196Z,22.10
2018-09-27T17:23:40.600Z,21.70
2018-09-27T17:26:10.859Z,21.50
2018-09-27T17:28:41.273Z,21.50
2018-09-27T17:31:11.078Z,21.30
2018-09-27T17:33:40.769Z,20.70
2018-09-27T17:36:11.106Z,20.30
2018-09-27T17:38:42.163Z,20.10
2018-09-27T17:41:11.951Z,20.10
2018-09-27T17:43:41.761Z,20.10
2018-09-27T17:46:11.717Z,19.90
2018-09-27T17:48:41.680Z,19.80
2018-09-27T17:51:12.050Z,19.80
2018-09-27T17:53:42.473Z,19.90
2018-09-27T17:56:12.861Z,19.90
2018-09-27T17:58:43.571Z,20.00
2018-09-27T18:01:14.083Z,19.80
2018-09-27T18:03:43.923Z,19.80
2018-09-27T18:06:13.650Z,19.60
2018-09-27T18:08:43.285Z,19.50
2018-09-27T18:11:12.927Z,19.40
2018-09-27T18:13:42.777Z,19.40
2018-09-27T18:16:12.482Z,19.30
2018-09-27T18:18:42.079Z,19.30
2018-09-27T18:21:11.706Z,19.20
2018-09-27T18:23:41.314Z,19.30
2018-09-27T18:26:10.951Z,19.20
2018-09-27T18:28:40.691Z,19.00
2018-09-27T18:31:10.586Z,18.90
2018-09-27T18:33:49.110Z,19.00
2018-09-27T18:36:18.818Z,19.00
2018-09-27T18:38:48.708Z,18.90
2018-09-27T18:41:18.326Z,18.70
2018-09-27T18:43:47.914Z,18.90
2018-09-27T18:46:17.959Z,18.90
2018-09-27T18:48:47.620Z,18.90
2018-09-27T18:51:17.224Z,18.80
2018-09-27T18:53:46.880Z,18.70
2018-09-27T18:56:16.561Z,18.70
2018-09-27T18:58:46.147Z,18.70
2018-09-27T19:01:15.865Z,18.60
2018-09-27T19:03:45.548Z,18.50
2018-09-27T19:06:15.187Z,18.40
2018-09-27T19:08:44.834Z,18.50
2018-09-27T19:11:14.648Z,18.50
2018-09-27T19:13:44.149Z,18.50
2018-09-27T19:16:13.916Z,18.50
2018-09-27T19:18:43.555Z,18.40
2018-09-27T19:21:13.094Z,18.30
2018-09-27T19:23:42.843Z,18.20
2018-09-27T19:26:12.711Z,18.20
2018-09-27T19:28:42.313Z,18.50
2018-09-27T19:31:11.953Z,18.50
2018-09-27T19:33:41.553Z,18.40
2018-09-27T19:36:11.262Z,18.40
2018-09-27T19:38:40.909Z,18.20
2018-09-27T19:41:10.539Z,18.10
2018-09-27T19:43:40.214Z,18.20
2018-09-27T19:46:10.128Z,18.20
2018-09-27T19:48:39.985Z,18.20
2018-09-27T19:51:09.626Z,18.10
2018-09-27T19:53:39.290Z,18.10
2018-09-27T19:56:09.396Z,18.10
2018-09-27T19:58:38.988Z,18.20
2018-09-27T20:01:08.833Z,18.10
2018-09-27T20:03:38.440Z,18.00
2018-09-27T20:06:08.179Z,17.90
2018-09-27T20:08:37.755Z,18.00
2018-09-27T20:11:07.366Z,17.80
2018-09-27T20:13:37.032Z,17.90
2018-09-27T20:16:06.729Z,17.70
2018-09-27T20:18:36.385Z,17.60
2018-09-27T20:21:05.995Z,17.60
2018-09-27T20:23:35.541Z,17.60
2018-09-27T20:26:05.162Z,17.60
2018-09-27T20:28:35.134Z,17.50
2018-09-27T20:31:04.723Z,17.40
2018-09-27T20:33:34.358Z,17.40
2018-09-27T20:36:03.960Z,17.10
2018-09-27T20:38:33.563Z,17.20
2018-09-27T20:41:03.218Z,17.30
2018-09-27T20:43:32.820Z,17.40
2018-09-27T20:46:02.453Z,17.60
2018-09-27T20:48:32.113Z,17.50
2018-09-27T20:51:01.838Z,17.50
2018-09-27T20:53:31.476Z,17.40
2018-09-27T20:56:01.090Z,17.30
2018-09-27T20:58:30.752Z,17.20
2018-09-27T21:01:00.328Z,17.20
2018-09-27T21:03:29.940Z,17.20
2018-09-27T21:05:59.569Z,17.00
2018-09-27T21:08:29.205Z,17.00
2018-09-27T21:10:58.818Z,17.10
2018-09-27T21:13:28.428Z,17.00
2018-09-27T21:15:58.080Z,17.20
2018-09-27T21:18:27.719Z,17.30
2018-09-27T21:20:57.364Z,17.10
2018-09-27T21:23:26.997Z,17.30
2018-09-27T21:25:56.654Z,17.40
2018-09-27T21:28:26.292Z,17.40
2018-09-27T21:30:55.886Z,17.50
2018-09-27T21:33:25.474Z,17.50
2018-09-27T21:35:55.176Z,17.60
2018-09-27T21:38:24.782Z,17.80
2018-09-27T21:40:54.413Z,17.80
2018-09-27T21:43:24.061Z,17.70
2018-09-27T21:45:53.644Z,17.70
2018-09-27T21:48:23.334Z,17.50
2018-09-27T21:50:52.994Z,17.40
2018-09-27T21:53:22.606Z,17.40
2018-09-27T21:55:52.202Z,17.40
2018-09-27T21:58:21.833Z,17.50
2018-09-27T22:00:52.553Z,17.60
2018-09-27T22:03:23.761Z,17.40
2018-09-27T22:05:53.814Z,17.50
2018-09-27T22:08:23.564Z,17.50
2018-09-27T22:10:53.236Z,17.40
2018-09-27T22:13:22.847Z,17.40
2018-09-27T22:15:52.433Z,17.30
2018-09-27T22:18:22.219Z,17.40
2018-09-27T22:20:51.847Z,17.40
2018-09-27T22:23:21.484Z,17.50
2018-09-27T22:25:51.109Z,17.40
2018-09-27T22:28:20.863Z,17.50
2018-09-27T22:30:50.433Z,17.40
2018-09-27T22:33:19.947Z,17.40
2018-09-27T22:35:49.508Z,17.50
2018-09-27T22:38:19.183Z,17.50
2018-09-27T22:40:48.755Z,17.40
2018-09-27T22:43:18.381Z,17.30
2018-09-27T22:45:47.988Z,17.40
2018-09-27T22:48:17.564Z,17.40
2018-09-27T22:50:47.169Z,17.30
2018-09-27T22:53:16.810Z,17.30
2018-09-27T22:55:46.388Z,17.40
2018-09-27T22:58:16.007Z,17.30
2018-09-27T23:00:45.685Z,17.20
2018-09-27T23:03:15.286Z,17.30
2018-09-27T23:05:44.869Z,17.30
2018-09-27T23:08:14.482Z,17.30
2018-09-27T23:10:44.124Z,17.30
2018-09-27T23:13:13.744Z,17.30
2018-09-27T23:15:43.310Z,17.20
2018-09-27T23:18:13.049Z,17.20
2018-09-27T23:20:42.676Z,17.20
2018-09-27T23:23:12.297Z,17.30
2018-09-27T23:25:41.878Z,17.20
2018-09-27T23:28:11.500Z,17.10
2018-09-27T23:30:41.420Z,17.20
2018-09-27T23:33:11.235Z,17.20
2018-09-27T23:35:40.913Z,17.20
2018-09-27T23:38:10.660Z,17.20
2018-09-27T23:40:40.280Z,17.30
2018-09-27T23:43:09.875Z,17.20
2018-09-27T23:45:39.453Z,17.20
2018-09-27T23:48:09.084Z,17.30
2018-09-27T23:50:38.735Z,17.20
2018-09-27T23:53:08.355Z,17.20
2018-09-27T23:55:37.971Z,17.10
2018-09-27T23:58:07.617Z,17.10
